createdAt,value
2018-07-01T00:02:07.946Z,94929.80
2018-07-01T00:05:12.586Z,94925.59
2018-07-01T00:08:16.995Z,94924.59
2018-07-01T00:11:21.466Z,94923.61
2018-07-01T00:14:26.561Z,94923.52
2018-07-01T00:17:31.320Z,94933.80
2018-07-01T00:20:35.695Z,94930.27
2018-07-01T00:23:40.131Z,94938.34
2018-07-01T00:26:45.383Z,94938.44
2018-07-01T00:29:50.221Z,94935.95
2018-07-01T00:32:54.516Z,94939.89
2018-07-01T00:35:58.817Z,94941.36
2018-07-01T00:39:03.314Z,94942.29
2018-07-01T00:42:07.659Z,94932.70
2018-07-01T00:45:11.947Z,94933.70
2018-07-01T00:48:16.554Z,94936.28
2018-07-01T00:51:21.462Z,94929.30
2018-07-01T00:54:26.620Z,94927.75
2018-07-01T00:57:30.925Z,94932.46
2018-07-01T01:00:35.710Z,94936.65
2018-07-01T01:03:40.014Z,94943.25
2018-07-01T01:06:44.379Z,94939.31
2018-07-01T01:09:48.925Z,94942.41
2018-07-01T01:12:53.522Z,94937.77
2018-07-01T01:15:58.598Z,94945.50
2018-07-01T01:19:03.046Z,94946.67
2018-07-01T01:22:07.326Z,94948.01
2018-07-01T01:25:11.637Z,94948.34
2018-07-01T01:28:16.509Z,94941.66
2018-07-01T01:31:20.874Z,94945.90
2018-07-01T01:34:25.940Z,94942.89
2018-07-01T01:37:30.372Z,94945.96
2018-07-01T01:40:40.693Z,94941.96
2018-07-01T01:44:03.745Z,94945.02
2018-07-01T01:47:14.095Z,94942.45
2018-07-01T01:50:23.889Z,94944.89
2018-07-01T01:53:34.236Z,94945.45
2018-07-01T01:56:50.762Z,94939.61
2018-07-01T02:01:03.475Z,94943.40
2018-07-01T02:04:15.962Z,94941.11
2018-07-01T02:07:24.505Z,94948.91
2018-07-01T02:10:29.032Z,94947.25
2018-07-01T02:13:35.082Z,94940.11
2018-07-01T02:16:42.579Z,94945.66
2018-07-01T02:19:47.013Z,94941.81
2018-07-01T02:22:58.793Z,94945.55
2018-07-01T02:26:03.459Z,94943.07
2018-07-01T02:29:07.806Z,94957.63
2018-07-01T02:32:12.198Z,94957.41
2018-07-01T02:35:16.828Z,94947.73
2018-07-01T02:38:21.385Z,94949.42
2018-07-01T02:41:25.657Z,94946.91
2018-07-01T02:44:30.062Z,94946.13
2018-07-01T02:47:34.331Z,94949.70
2018-07-01T02:50:39.731Z,94955.36
2018-07-01T02:53:44.062Z,94948.17
2018-07-01T02:56:48.353Z,94951.70
2018-07-01T02:59:52.714Z,94949.17
2018-07-01T03:02:57.348Z,94948.06
2018-07-01T03:06:01.889Z,94952.97
2018-07-01T03:09:11.891Z,94952.78
2018-07-01T03:12:16.246Z,94954.55
2018-07-01T03:15:20.717Z,94952.34
2018-07-01T03:18:25.493Z,94951.34
2018-07-01T03:21:29.793Z,94952.45
2018-07-01T03:24:34.333Z,94955.66
2018-07-01T03:27:38.632Z,94954.00
2018-07-01T03:30:44.170Z,94954.68
2018-07-01T03:33:48.441Z,94960.10
2018-07-01T03:36:53.721Z,94959.45
2018-07-01T03:39:58.073Z,94961.53
2018-07-01T03:43:03.361Z,94963.88
2018-07-01T03:46:07.671Z,94969.00
2018-07-01T03:49:12.123Z,94971.09
2018-07-01T03:52:16.910Z,94966.44
2018-07-01T03:55:21.353Z,94964.80
2018-07-01T03:58:25.720Z,94967.11
2018-07-01T04:01:30.043Z,94965.89
2018-07-01T04:04:34.365Z,94965.55
2018-07-01T04:07:38.680Z,94965.77
2018-07-01T04:10:43.087Z,94959.33
2018-07-01T04:13:47.394Z,94964.80
2018-07-01T04:16:52.710Z,94973.75
2018-07-01T04:19:57.248Z,94975.52
2018-07-01T04:23:01.570Z,94972.20
2018-07-01T04:26:06.173Z,94978.30
2018-07-01T04:29:10.902Z,94977.39
2018-07-01T04:32:15.475Z,94977.06
2018-07-01T04:35:19.794Z,94984.83
2018-07-01T04:38:24.349Z,94985.45
2018-07-01T04:41:28.683Z,94988.77
2018-07-01T04:44:34.657Z,94988.41
2018-07-01T04:47:39.135Z,94991.05
2018-07-01T04:50:43.414Z,94988.61
2018-07-01T04:53:47.700Z,94990.69
2018-07-01T04:56:52.007Z,94989.59
2018-07-01T04:59:57.896Z,94993.42
2018-07-01T05:03:03.003Z,94987.17
2018-07-01T05:06:07.330Z,94989.25
2018-07-01T05:09:13.697Z,94992.10
2018-07-01T05:12:18.688Z,94994.61
2018-07-01T05:15:23.269Z,94997.42
2018-07-01T05:18:27.777Z,94998.77
2018-07-01T05:21:32.098Z,95002.91
2018-07-01T05:24:36.386Z,95000.28
2018-07-01T05:27:41.288Z,94996.54
2018-07-01T05:30:46.591Z,94999.69
2018-07-01T05:33:50.920Z,95005.15
2018-07-01T05:36:55.255Z,95011.36
2018-07-01T05:39:59.541Z,95008.61
2018-07-01T05:43:03.844Z,95006.29
2018-07-01T05:46:08.302Z,95010.63
2018-07-01T05:49:12.602Z,95013.01
2018-07-01T05:52:16.964Z,95011.84
2018-07-01T05:55:22.034Z,95008.61
2018-07-01T05:58:26.453Z,95015.16
2018-07-01T06:01:31.095Z,95015.94
2018-07-01T06:04:35.474Z,95017.45
2018-07-01T06:07:39.979Z,95022.33
2018-07-01T06:10:44.286Z,95016.19
2018-07-01T06:13:49.188Z,95015.77
2018-07-01T06:16:53.637Z,95017.22
2018-07-01T06:19:58.754Z,95018.52
2018-07-01T06:23:03.179Z,95019.50
2018-07-01T06:26:08.095Z,95014.98
2018-07-01T06:29:12.482Z,95013.97
2018-07-01T06:32:17.082Z,95017.72
2018-07-01T06:36:01.172Z,95015.41
2018-07-01T06:39:43.179Z,95011.98
2018-07-01T06:42:49.251Z,95014.48
2018-07-01T06:45:54.291Z,95016.56
2018-07-01T06:48:59.717Z,95020.45
2018-07-01T06:52:04.984Z,95012.20
2018-07-01T06:55:09.355Z,95005.36
2018-07-01T06:58:13.977Z,95009.67
2018-07-01T07:01:19.373Z,95004.79
2018-07-01T07:04:24.522Z,95008.09
2018-07-01T07:07:29.930Z,95010.59
2018-07-01T07:10:34.234Z,95008.20
2018-07-01T07:13:38.593Z,95002.47
2018-07-01T07:16:43.095Z,94995.97
2018-07-01T07:19:47.374Z,95007.98
2018-07-01T07:22:52.001Z,95005.70
2018-07-01T07:25:56.253Z,95007.52
2018-07-01T07:29:00.958Z,95010.74
2018-07-01T07:32:05.968Z,95010.38
2018-07-01T07:35:10.230Z,95006.36
2018-07-01T07:38:14.525Z,95008.68
2018-07-01T07:41:19.870Z,95009.84
2018-07-01T07:44:24.394Z,95015.15
2018-07-01T07:47:29.989Z,95007.86
2018-07-01T07:50:34.356Z,95008.34
2018-07-01T07:53:39.633Z,95002.50
2018-07-01T07:56:44.342Z,95009.83
2018-07-01T07:59:49.046Z,94999.95
2018-07-01T08:02:54.065Z,94999.27
2018-07-01T08:05:58.727Z,95004.70
2018-07-01T08:09:03.582Z,95008.78
2018-07-01T08:12:08.262Z,95005.48
2018-07-01T08:15:14.593Z,95005.40
2018-07-01T08:18:19.317Z,95005.39
2018-07-01T08:21:24.043Z,94998.48
2018-07-01T08:24:30.449Z,94998.34
2018-07-01T08:27:34.940Z,94995.57
2018-07-01T08:30:39.923Z,94996.76
2018-07-01T08:33:44.725Z,95003.28
2018-07-01T08:36:49.324Z,95008.44
2018-07-01T08:39:54.272Z,95008.45
2018-07-01T08:42:58.853Z,95011.09
2018-07-01T08:46:03.464Z,95010.80
2018-07-01T08:49:08.054Z,95014.17
2018-07-01T08:52:13.371Z,95012.09
2018-07-01T08:55:18.178Z,95019.72
2018-07-01T08:58:23.077Z,95016.81
2018-07-01T09:01:27.476Z,95027.70
2018-07-01T09:04:32.367Z,95033.31
2018-07-01T09:07:36.851Z,95028.13
2018-07-01T09:10:42.490Z,95034.08
2018-07-01T09:13:47.195Z,95029.63
2018-07-01T09:16:51.696Z,95031.60
2018-07-01T09:19:56.200Z,95029.25
2018-07-01T09:23:00.759Z,95025.56
2018-07-01T09:26:06.160Z,95031.31
2018-07-01T09:29:11.352Z,95025.91
2018-07-01T09:32:16.093Z,95026.91
2018-07-01T09:35:21.470Z,95030.38
2018-07-01T09:39:03.985Z,95037.89
2018-07-01T09:42:10.562Z,95028.95
2018-07-01T09:45:15.658Z,95029.03
2018-07-01T09:48:20.473Z,95029.72
2018-07-01T09:51:25.187Z,95023.94
2018-07-01T09:54:29.541Z,95030.09
2018-07-01T09:57:34.545Z,95030.83
2018-07-01T10:00:39.306Z,95035.17
2018-07-01T10:03:43.880Z,95029.64
2018-07-01T10:06:48.242Z,95025.57
2018-07-01T10:09:52.612Z,95024.94
2018-07-01T10:12:57.365Z,95022.06
2018-07-01T10:16:01.892Z,95016.48
2018-07-01T10:19:06.636Z,95012.22
2018-07-01T10:22:11.517Z,95014.77
2018-07-01T10:25:16.387Z,95010.13
2018-07-01T10:28:21.550Z,95016.91
2018-07-01T10:31:26.082Z,95013.02
2018-07-01T10:34:30.704Z,95013.28
2018-07-01T10:37:35.394Z,95014.13
2018-07-01T10:40:39.840Z,95013.36
2018-07-01T10:43:47.199Z,95008.98
2018-07-01T10:46:51.608Z,95007.89
2018-07-01T10:49:56.256Z,95011.66
2018-07-01T10:53:00.694Z,95007.63
2018-07-01T10:56:05.244Z,94997.93
2018-07-01T10:59:10.082Z,94998.66
2018-07-01T11:02:15.186Z,94997.11
2018-07-01T11:05:19.583Z,94999.92
2018-07-01T11:08:24.062Z,94998.12
2018-07-01T11:11:28.433Z,95001.23
2018-07-01T11:14:35.243Z,94997.25
2018-07-01T11:17:40.027Z,94996.77
2018-07-01T11:20:44.597Z,94991.30
2018-07-01T11:23:49.477Z,94989.92
2018-07-01T11:26:54.280Z,94990.31
2018-07-01T11:29:58.730Z,94989.03
2018-07-01T11:33:03.337Z,94986.88
2018-07-01T11:36:07.792Z,94980.90
2018-07-01T11:39:12.572Z,94983.91
2018-07-01T11:42:18.007Z,94980.05
2018-07-01T11:45:22.705Z,94990.25
2018-07-01T11:48:27.338Z,94981.83
2018-07-01T11:51:31.907Z,94987.28
2018-07-01T11:54:36.465Z,94996.96
2018-07-01T11:57:41.227Z,94982.45
2018-07-01T12:00:45.549Z,94986.39
2018-07-01T12:03:50.219Z,94981.47
2018-07-01T12:06:54.794Z,94977.87
2018-07-01T12:09:59.382Z,94981.48
2018-07-01T12:13:03.848Z,94983.66
2018-07-01T12:16:08.745Z,94976.89
2018-07-01T12:19:13.223Z,94974.48
2018-07-01T12:22:17.660Z,94978.00
2018-07-01T12:25:22.073Z,94974.78
2018-07-01T12:28:26.234Z,94978.00
2018-07-01T12:31:30.842Z,94977.48
2018-07-01T12:34:35.228Z,94974.22
2018-07-01T12:37:40.036Z,94977.43
2018-07-01T12:40:44.671Z,94972.52
2018-07-01T12:43:49.065Z,94969.08
2018-07-01T12:46:53.585Z,94959.64
2018-07-01T12:49:58.053Z,94959.67
2018-07-01T12:53:02.407Z,94963.81
2018-07-01T12:56:07.047Z,94967.80
2018-07-01T12:59:11.401Z,94964.53
2018-07-01T13:02:15.697Z,94963.79
2018-07-01T13:05:20.092Z,94961.48
2018-07-01T13:08:24.370Z,94954.21
2018-07-01T13:11:28.738Z,94961.80
2018-07-01T13:14:33.485Z,94950.42
2018-07-01T13:17:37.804Z,94945.98
2018-07-01T13:20:42.236Z,94943.28
2018-07-01T13:23:46.613Z,94934.84
2018-07-01T13:26:51.178Z,94942.44
2018-07-01T13:29:55.640Z,94939.63
2018-07-01T13:33:00.112Z,94938.00
2018-07-01T13:36:04.478Z,94925.72
2018-07-01T13:39:11.478Z,94938.43
2018-07-01T13:42:16.516Z,94927.83
2018-07-01T13:45:20.904Z,94930.64
2018-07-01T13:48:25.317Z,94925.37
2018-07-01T13:51:29.930Z,94924.20
2018-07-01T13:54:34.976Z,94928.23
2018-07-01T13:57:39.515Z,94929.80
2018-07-01T14:00:43.962Z,94926.00
2018-07-01T14:03:48.831Z,94925.73
2018-07-01T14:06:53.170Z,94926.41
2018-07-01T14:09:58.013Z,94932.82
2018-07-01T14:13:03.230Z,94921.23
2018-07-01T14:16:07.692Z,94924.81
2018-07-01T14:19:12.057Z,94927.58
2018-07-01T14:22:17.178Z,94920.00
2018-07-01T14:25:23.348Z,94925.33
2018-07-01T14:28:27.840Z,94920.77
2018-07-01T14:31:32.478Z,94917.33
2018-07-01T14:34:36.828Z,94919.71
2018-07-01T14:37:41.381Z,94918.36
2018-07-01T14:40:45.949Z,94923.44
2018-07-01T14:43:50.408Z,94923.48
2018-07-01T14:46:55.398Z,94921.65
2018-07-01T14:49:59.882Z,94919.53
2018-07-01T14:53:04.479Z,94920.77
2018-07-01T14:56:09.439Z,94915.87
2018-07-01T14:59:13.872Z,94909.55
2018-07-01T15:02:18.634Z,94914.19
2018-07-01T15:05:23.611Z,94918.23
2018-07-01T15:08:28.384Z,94922.89
2018-07-01T15:11:32.864Z,94920.95
2018-07-01T15:14:37.411Z,94918.09
2018-07-01T15:17:41.946Z,94915.40
2018-07-01T15:20:46.797Z,94925.37
2018-07-01T15:23:51.202Z,94916.83
2018-07-01T15:26:56.095Z,94915.53
2018-07-01T15:30:00.589Z,94921.59
2018-07-01T15:33:06.039Z,94919.97
2018-07-01T15:36:10.359Z,94915.77
2018-07-01T15:39:15.014Z,94917.73
2018-07-01T15:42:19.619Z,94911.09
2018-07-01T15:45:24.084Z,94907.94
2018-07-01T15:48:28.523Z,94906.14
2018-07-01T15:51:33.179Z,94907.66
2018-07-01T15:54:37.658Z,94905.31
2018-07-01T15:57:42.137Z,94908.69
2018-07-01T16:00:46.478Z,94903.95
2018-07-01T16:03:50.843Z,94906.86
2018-07-01T16:06:55.357Z,94908.22
2018-07-01T16:09:59.941Z,94908.20
2018-07-01T16:13:04.289Z,94909.36
2018-07-01T16:16:08.874Z,94906.91
2018-07-01T16:19:13.269Z,94906.66
2018-07-01T16:22:17.721Z,94906.22
2018-07-01T16:25:27.724Z,94905.50
2018-07-01T16:28:37.454Z,94902.80
2018-07-01T16:31:42.491Z,94902.53
2018-07-01T16:34:47.125Z,94904.69
2018-07-01T16:37:51.573Z,94911.63
2018-07-01T16:40:56.148Z,94909.87
2018-07-01T16:44:00.774Z,94913.09
2018-07-01T16:47:05.450Z,94918.25
2018-07-01T16:50:09.929Z,94915.84
2018-07-01T16:53:14.428Z,94913.29
2018-07-01T16:56:18.961Z,94917.58
2018-07-01T16:59:24.537Z,94909.24
2018-07-01T17:02:29.003Z,94913.02
2018-07-01T17:05:34.001Z,94920.26
2018-07-01T17:08:38.455Z,94920.39
2018-07-01T17:11:43.173Z,94918.61
2018-07-01T17:14:47.537Z,94929.30
2018-07-01T17:17:52.989Z,94922.17
2018-07-01T17:20:57.535Z,94920.73
2018-07-01T17:24:02.986Z,94923.62
2018-07-01T17:27:08.496Z,94928.88
2018-07-01T17:30:13.282Z,94929.04
2018-07-01T17:33:22.275Z,94930.73
2018-07-01T17:36:26.761Z,94924.80
2018-07-01T17:39:31.110Z,94930.85
2018-07-01T17:42:35.621Z,94932.08
2018-07-01T17:45:40.463Z,94931.92
2018-07-01T17:48:45.039Z,94933.11
2018-07-01T17:51:49.607Z,94927.77
2018-07-01T17:54:54.764Z,94927.38
2018-07-01T17:57:59.376Z,94929.52
2018-07-01T18:01:05.198Z,94928.38
2018-07-01T18:04:09.934Z,94935.70
2018-07-01T18:07:14.606Z,94935.16
2018-07-01T18:10:19.324Z,94939.77
2018-07-01T18:13:24.471Z,94939.02
2018-07-01T18:16:31.103Z,94946.55
2018-07-01T18:19:35.886Z,94947.09
2018-07-01T18:23:09.766Z,94939.98
2018-07-01T18:25:45.312Z,94942.26
2018-07-01T18:28:59.161Z,94944.94
2018-07-01T18:31:54.449Z,94947.42
2018-07-01T18:34:59.227Z,94948.20
2018-07-01T18:38:03.755Z,94945.67
2018-07-01T18:41:08.245Z,94943.14
2018-07-01T18:44:12.755Z,94944.09
2018-07-01T18:47:17.813Z,94949.03
2018-07-01T18:50:22.323Z,94948.44
2018-07-01T18:53:27.634Z,94941.63
2018-07-01T18:56:32.438Z,94945.23
2018-07-01T18:59:37.198Z,94944.62
2018-07-01T19:02:42.276Z,94942.41
2018-07-01T19:05:47.096Z,94950.27
2018-07-01T19:08:51.670Z,94955.35
2018-07-01T19:11:55.893Z,94959.34
2018-07-01T19:15:01.043Z,94952.16
2018-07-01T19:18:06.713Z,94954.75
2018-07-01T19:21:11.285Z,94953.31
2018-07-01T19:24:15.753Z,94952.65
2018-07-01T19:27:20.562Z,94955.43
2018-07-01T19:30:26.797Z,94956.28
2018-07-01T19:33:31.970Z,94968.24
2018-07-01T19:36:36.985Z,94968.39
2018-07-01T19:39:41.875Z,94967.72
2018-07-01T19:42:47.047Z,94961.73
2018-07-01T19:45:51.561Z,94969.59
2018-07-01T19:48:56.068Z,94965.55
2018-07-01T19:52:00.681Z,94967.12
2018-07-01T19:55:05.273Z,94969.98
2018-07-01T19:58:10.108Z,94971.90
2018-07-01T20:01:15.040Z,94970.50
2018-07-01T20:04:20.163Z,94979.91
2018-07-01T20:07:25.021Z,94976.53
2018-07-01T20:10:29.465Z,94973.64
2018-07-01T20:13:34.897Z,94973.53
2018-07-01T20:16:39.448Z,94976.45
2018-07-01T20:19:43.831Z,94977.89
2018-07-01T20:22:49.469Z,94978.55
2018-07-01T20:25:54.024Z,94973.31
2018-07-01T20:28:59.386Z,94971.43
2018-07-01T20:32:04.052Z,94972.87
2018-07-01T20:35:08.682Z,94978.08
2018-07-01T20:38:13.586Z,94971.91
2018-07-01T20:41:18.457Z,94972.91
2018-07-01T20:44:22.965Z,94971.00
2018-07-01T20:47:27.405Z,94966.59
2018-07-01T20:50:33.240Z,94970.81
2018-07-01T20:53:38.023Z,94972.44
2018-07-01T20:56:42.966Z,94973.83
2018-07-01T20:59:47.474Z,94968.13
2018-07-01T21:02:51.769Z,94963.17
2018-07-01T21:05:57.361Z,94968.38
2018-07-01T21:09:34.376Z,94966.97
2018-07-01T21:12:40.270Z,94966.28
2018-07-01T21:15:44.837Z,94966.97
2018-07-01T21:18:49.354Z,94967.81
2018-07-01T21:21:53.671Z,94967.53
2018-07-01T21:24:58.074Z,94961.19
2018-07-01T21:28:02.672Z,94960.54
2018-07-01T21:31:09.055Z,94959.55
2018-07-01T21:34:13.389Z,94951.80
2018-07-01T21:37:17.848Z,94952.78
2018-07-01T21:40:22.235Z,94943.75
2018-07-01T21:43:26.826Z,94947.04
2018-07-01T21:46:31.431Z,94948.53
2018-07-01T21:49:50.988Z,94949.53
2018-07-01T21:52:56.154Z,94943.25
2018-07-01T21:56:00.505Z,94942.14
2018-07-01T21:59:04.900Z,94940.80
2018-07-01T22:02:09.313Z,94938.27
2018-07-01T22:05:13.804Z,94932.42
2018-07-01T22:08:18.186Z,94943.13
2018-07-01T22:11:53.061Z,94941.27
2018-07-01T22:15:21.627Z,94934.31
2018-07-01T22:18:58.104Z,94938.53
2018-07-01T22:22:04.116Z,94935.45
2018-07-01T22:25:08.671Z,94931.33
2018-07-01T22:28:13.800Z,94935.00
2018-07-01T22:31:18.361Z,94935.55
2018-07-01T22:34:23.749Z,94926.71
2018-07-01T22:37:28.379Z,94932.73
2018-07-01T22:40:32.882Z,94929.09
2018-07-01T22:43:37.683Z,94923.02
2018-07-01T22:46:42.974Z,94934.45
2018-07-01T22:49:49.366Z,94928.56
2018-07-01T22:52:53.958Z,94930.44
2018-07-01T22:55:58.271Z,94927.67
2018-07-01T22:59:02.935Z,94930.27
2018-07-01T23:03:18.921Z,94935.72
2018-07-01T23:06:24.674Z,94933.17
2018-07-01T23:09:29.090Z,94928.86
2018-07-01T23:12:34.044Z,94930.44
2018-07-01T23:15:38.485Z,94932.13
2018-07-01T23:18:42.847Z,94935.01
2018-07-01T23:21:47.861Z,94928.95
2018-07-01T23:24:52.257Z,94926.41
2018-07-01T23:27:56.577Z,94932.45
2018-07-01T23:31:01.095Z,94927.05
2018-07-01T23:34:05.736Z,94924.45
2018-07-01T23:37:10.103Z,94928.56
2018-07-01T23:40:14.675Z,94928.01
2018-07-01T23:43:19.908Z,94923.38
2018-07-01T23:46:24.363Z,94923.28
2018-07-01T23:49:28.762Z,94915.20
2018-07-01T23:52:33.246Z,94918.47
2018-07-01T23:55:37.745Z,94919.81
2018-07-01T23:58:42.642Z,94910.85
